Погода Србиновона 2 недели

Скопье, Македония

14 - 27 июля
  • 14июля
    Сегодня
    +18°
    +34°
    Небольшая облачность
    ВремяПогодаТемператураВлажностьДавлениеВетер, м/сВероятность осадков
    02:00Ясно и безоблачно+19°C65 %689 мм1.3 м/с2 %
    05:00Ясно и безоблачно+17°C67 %689 мм0.8 м/с2 %
    08:00Ясно и безоблачно+24°C55 %691 мм0.1 м/с2 %
    11:00Ясно и безоблачно+31°C33 %692 мм0.7 м/с2 %
    14:00Небольшая облачность+33°C32 %692 мм1.6 м/с3 %
    17:00Небольшая облачность, возможен дождь с грозой+31°C38 %691 мм1.6 м/с8 %
    20:00Ясно и безоблачно+27°C60 %691 мм1.0 м/с2 %
    23:00Ясно и безоблачно+23°C73 %690 мм1.0 м/с2 %
  • 15июля
    Понедельник
    +17°
    +34°
    Ясно и безоблачно
    ВремяПогодаТемператураВлажностьДавлениеВетер, м/сВероятность осадков
    02:00Ясно и безоблачно+19°C71 %690 мм1.0 м/с2 %
    05:00Ясно и безоблачно+19°C67 %690 мм1.3 м/с2 %
    08:00Ясно и безоблачно+25°C52 %692 мм1.3 м/с2 %
    11:00Ясно и безоблачно+31°C34 %693 мм2.3 м/с2 %
    14:00Ясно и безоблачно+34°C25 %692 мм2.7 м/с2 %
    17:00Ясно и безоблачно+33°C23 %692 мм2.6 м/с2 %
    20:00Ясно и безоблачно+28°C43 %691 мм1.1 м/с2 %
    23:00Ясно и безоблачно+22°C51 %691 мм1.5 м/с2 %
  • 16июля
    Вторник
    +16°
    +35°
    Ясно и безоблачно
    ВремяПогодаТемператураВлажностьДавлениеВетер, м/сВероятность осадков
    02:00Ясно и безоблачно+20°C57 %690 мм1.4 м/с2 %
    05:00Ясно и безоблачно+17°C63 %689 мм1.1 м/с2 %
    08:00Ясно и безоблачно+24°C50 %692 мм0.7 м/с2 %
    11:00Ясно и безоблачно+31°C29 %693 мм1.3 м/с2 %
    14:00Ясно и безоблачно+35°C22 %692 мм2.3 м/с2 %
    17:00Ясно и безоблачно+34°C19 %691 мм1.8 м/с3 %
    20:00Ясно и безоблачно+28°C36 %690 мм1.1 м/с2 %
    23:00Ясно и безоблачно+22°C60 %690 мм0.9 м/с2 %
  • 17июля
    Среда
    +18°
    +35°
    Ясно и безоблачно
    ВремяПогодаТемператураВлажностьДавлениеВетер, м/сВероятность осадков
    02:00Ясно и безоблачно+19°C62 %689 мм0.9 м/с2 %
    05:00Ясно и безоблачно+17°C58 %689 мм1.0 м/с2 %
    08:00Ясно и безоблачно+25°C47 %692 мм1.0 м/с2 %
    11:00Ясно и безоблачно+32°C30 %694 мм1.2 м/с2 %
    14:00Ясно и безоблачно+35°C24 %694 мм2.0 м/с9 %
    17:00Практически безоблачно+34°C22 %693 мм2.2 м/с11 %
    20:00Практически безоблачно+29°C40 %692 мм1.2 м/с3 %
    23:00Ясно и безоблачно+24°C52 %692 мм1.3 м/с2 %
  • 18июля
    Четверг
    +20°
    +36°
    Практически безоблачно
    ВремяПогодаТемператураВлажностьДавлениеВетер, м/сВероятность осадков
    02:00Ясно и безоблачно+22°C52 %691 мм1.3 м/с2 %
    05:00Практически безоблачно+19°C55 %691 мм1.2 м/с2 %
    08:00Ясно и безоблачно+25°C46 %693 мм0.9 м/с2 %
    11:00Ясно и безоблачно+33°C30 %694 мм0.9 м/с2 %
    14:00Практически безоблачно+35°C24 %694 мм1.8 м/с9 %
    17:00Небольшая облачность+34°C25 %693 мм1.8 м/с27 %
    20:00Практически безоблачно+29°C43 %692 мм1.4 м/с9 %
    23:00Ясно и безоблачно+24°C58 %691 мм1.0 м/с2 %
Мы используем cookies
Соглашаюсь